createdAt,value
2022-08-04T00:03:04.900Z,23.90
2022-08-04T00:07:44.066Z,23.80
2022-08-04T00:11:37.842Z,23.80
2022-08-04T00:15:47.213Z,23.80
2022-08-04T00:19:58.916Z,23.70
2022-08-04T00:24:11.980Z,23.70
2022-08-04T00:28:19.003Z,23.60
2022-08-04T00:32:34.503Z,23.60
2022-08-04T00:36:39.184Z,23.60
2022-08-04T00:40:53.646Z,23.50
2022-08-04T00:45:14.302Z,23.50
2022-08-04T00:49:45.366Z,23.50
2022-08-04T00:54:13.528Z,23.50
2022-08-04T00:58:37.007Z,23.40
2022-08-04T01:03:10.298Z,23.40
2022-08-04T01:07:42.071Z,23.30
2022-08-04T01:12:10.384Z,23.20
2022-08-04T01:16:21.169Z,23.20
2022-08-04T01:20:32.794Z,23.20
2022-08-04T01:25:08.400Z,23.20
2022-08-04T01:29:20.156Z,23.20
2022-08-04T01:33:32.531Z,23.20
2022-08-04T01:38:18.278Z,23.30
2022-08-04T01:42:32.225Z,23.30
2022-08-04T01:46:34.542Z,23.30
2022-08-04T01:50:45.581Z,23.30
2022-08-04T01:54:57.389Z,23.20
2022-08-04T01:59:06.729Z,23.20
2022-08-04T02:03:15.514Z,23.20
2022-08-04T02:07:57.282Z,23.10
2022-08-04T02:12:16.183Z,23.10
2022-08-04T02:16:37.262Z,23.10
2022-08-04T02:20:49.323Z,23.10
2022-08-04T02:25:07.358Z,23.10
2022-08-04T02:29:25.280Z,23.10
2022-08-04T02:33:40.749Z,23.10
2022-08-04T02:37:51.841Z,23.10
2022-08-04T02:42:02.809Z,23.10
2022-08-04T02:46:17.672Z,23.00
2022-08-04T02:50:29.037Z,22.90
2022-08-04T02:54:38.335Z,22.90
2022-08-04T02:58:49.661Z,22.90
2022-08-04T03:03:07.611Z,22.90
2022-08-04T03:07:25.544Z,22.80
2022-08-04T03:11:55.275Z,22.80
2022-08-04T03:16:23.839Z,22.80
2022-08-04T03:20:56.684Z,22.80
2022-08-04T03:25:33.315Z,22.70
2022-08-04T03:29:59.600Z,22.70
2022-08-04T03:34:16.833Z,22.70
2022-08-04T03:38:28.490Z,22.70
2022-08-04T03:42:49.200Z,22.60
2022-08-04T03:47:34.433Z,22.50
2022-08-04T03:52:11.580Z,22.40
2022-08-04T03:56:41.657Z,22.40
2022-08-04T04:01:08.449Z,22.30
2022-08-04T04:06:00.269Z,22.30
2022-08-04T04:10:21.395Z,22.30
2022-08-04T04:14:42.505Z,22.30
2022-08-04T04:19:12.087Z,22.30
2022-08-04T04:23:40.283Z,22.30
2022-08-04T04:28:44.425Z,22.30
2022-08-04T04:32:32.024Z,22.20
2022-08-04T04:36:52.823Z,22.20
2022-08-04T04:41:19.851Z,22.20
2022-08-04T04:45:37.337Z,22.20
2022-08-04T04:50:08.027Z,22.20
2022-08-04T04:54:41.436Z,22.20
2022-08-04T04:58:53.363Z,22.30
2022-08-04T05:03:31.465Z,22.30
2022-08-04T05:07:59.751Z,22.30
2022-08-04T05:12:59.282Z,22.40
2022-08-04T05:16:53.863Z,22.40
2022-08-04T05:21:21.617Z,22.40
2022-08-04T05:25:38.594Z,22.40
2022-08-04T05:29:56.215Z,22.40
2022-08-04T05:34:16.694Z,22.50
2022-08-04T05:38:28.394Z,22.50
2022-08-04T05:42:40.307Z,22.60
2022-08-04T05:46:54.943Z,22.60
2022-08-04T05:51:06.320Z,22.70
2022-08-04T05:55:56.620Z,22.60
2022-08-04T05:59:27.401Z,22.60
2022-08-04T06:03:38.144Z,22.60
2022-08-04T06:08:12.470Z,22.60
2022-08-04T06:12:03.796Z,22.60
2022-08-04T06:16:18.099Z,22.70
2022-08-04T06:20:34.588Z,22.80
2022-08-04T06:24:45.330Z,22.90
2022-08-04T06:28:54.919Z,23.00
2022-08-04T06:33:06.187Z,23.10
2022-08-04T06:37:40.921Z,23.30
2022-08-04T06:41:26.700Z,23.40
2022-08-04T06:45:38.399Z,23.40
2022-08-04T06:51:25.333Z,23.40
2022-08-04T06:54:22.006Z,23.40
2022-08-04T06:58:32.648Z,23.40
2022-08-04T07:02:54.057Z,23.40
2022-08-04T07:07:03.623Z,23.50
2022-08-04T07:11:13.801Z,23.60
2022-08-04T07:15:24.048Z,23.70
2022-08-04T07:19:34.972Z,23.90
2022-08-04T07:23:43.682Z,24.00
2022-08-04T07:27:52.439Z,24.20
2022-08-04T07:32:24.146Z,24.40
2022-08-04T07:36:40.690Z,24.60
2022-08-04T07:40:44.478Z,24.80
2022-08-04T07:44:53.098Z,25.10
2022-08-04T07:49:03.367Z,25.20
2022-08-04T07:53:52.901Z,25.40
2022-08-04T07:57:41.566Z,25.50
2022-08-04T08:01:37.702Z,25.70
2022-08-04T08:06:18.185Z,25.90
2022-08-04T08:09:57.078Z,26.20
2022-08-04T08:14:07.778Z,26.40
2022-08-04T08:18:16.585Z,26.70
2022-08-04T08:22:25.859Z,27.00
2022-08-04T08:26:36.216Z,27.30
2022-08-04T08:30:44.887Z,27.50
2022-08-04T08:34:54.102Z,27.70
2022-08-04T08:39:21.581Z,27.80
2022-08-04T08:44:05.181Z,28.00
2022-08-04T08:48:35.245Z,28.30
2022-08-04T08:53:02.784Z,28.60
2022-08-04T08:57:27.794Z,29.00
2022-08-04T09:01:39.578Z,29.10
2022-08-04T09:05:58.608Z,28.90
2022-08-04T09:10:27.811Z,28.80
2022-08-04T09:14:39.943Z,28.90
2022-08-04T09:18:59.278Z,29.20
2022-08-04T09:23:22.833Z,29.50
2022-08-04T09:27:43.416Z,29.70
2022-08-04T09:32:13.268Z,29.90
2022-08-04T09:36:42.316Z,30.10
2022-08-04T09:41:20.874Z,30.20
2022-08-04T09:45:42.714Z,30.30
2022-08-04T09:50:01.623Z,30.20
2022-08-04T09:54:30.619Z,30.20
2022-08-04T09:59:14.089Z,30.40
2022-08-04T10:03:29.467Z,30.60
2022-08-04T10:08:15.864Z,30.80
2022-08-04T10:12:19.024Z,31.00
2022-08-04T10:16:48.375Z,31.30
2022-08-04T10:21:15.382Z,31.60
2022-08-04T10:26:05.913Z,31.70
2022-08-04T10:30:14.006Z,31.70
2022-08-04T10:34:25.233Z,31.80
2022-08-04T10:38:40.979Z,31.80
2022-08-04T10:43:00.153Z,31.80
2022-08-04T10:47:17.600Z,31.80
2022-08-04T10:51:57.636Z,31.90
2022-08-04T10:56:20.255Z,31.80
2022-08-04T11:00:33.317Z,31.90
2022-08-04T11:04:47.825Z,31.80
2022-08-04T11:08:58.965Z,31.50
2022-08-04T11:13:22.049Z,31.40
2022-08-04T11:17:27.156Z,31.10
2022-08-04T11:21:38.690Z,31.00
2022-08-04T11:25:53.476Z,31.10
2022-08-04T11:30:08.087Z,31.10
2022-08-04T11:34:22.621Z,31.20
2022-08-04T11:38:46.249Z,31.10
2022-08-04T11:43:02.532Z,31.00
2022-08-04T11:47:14.262Z,30.70
2022-08-04T11:51:25.430Z,30.50
2022-08-04T11:56:08.036Z,30.20
2022-08-04T11:59:49.022Z,29.90
2022-08-04T12:04:17.167Z,29.60
2022-08-04T12:08:56.267Z,29.30
2022-08-04T12:13:17.281Z,29.10
2022-08-04T12:17:52.554Z,29.10
2022-08-04T12:21:55.839Z,29.00
2022-08-04T12:26:10.759Z,29.00
2022-08-04T12:31:02.499Z,29.00
2022-08-04T12:34:34.527Z,29.00
2022-08-04T12:38:46.221Z,28.90
2022-08-04T12:43:13.029Z,28.80
2022-08-04T12:47:27.555Z,28.70
2022-08-04T12:52:07.937Z,28.70
2022-08-04T12:56:01.431Z,28.80
2022-08-04T13:00:11.831Z,28.80
2022-08-04T13:04:29.393Z,28.70
2022-08-04T13:08:40.722Z,28.80
2022-08-04T13:13:00.177Z,28.80
2022-08-04T13:17:08.855Z,28.80
2022-08-04T13:21:49.466Z,29.00
2022-08-04T13:26:44.551Z,29.10
2022-08-04T13:29:58.919Z,29.10
2022-08-04T13:34:07.567Z,29.10
2022-08-04T13:38:19.685Z,29.10
2022-08-04T13:42:29.560Z,29.20
2022-08-04T13:46:50.576Z,29.20
2022-08-04T13:51:03.557Z,29.20
2022-08-04T13:55:27.434Z,29.30
2022-08-04T13:59:38.256Z,29.80
2022-08-04T14:04:01.970Z,30.20
2022-08-04T14:08:22.770Z,30.10
2022-08-04T14:12:45.685Z,30.10
2022-08-04T14:16:57.526Z,30.20
2022-08-04T14:21:10.731Z,30.00
2022-08-04T14:25:21.071Z,30.00
2022-08-04T14:29:32.781Z,30.10
2022-08-04T14:34:01.281Z,30.10
2022-08-04T14:37:56.270Z,29.90
2022-08-04T14:42:05.434Z,29.70
2022-08-04T14:46:15.695Z,29.50
2022-08-04T14:50:39.335Z,29.20
2022-08-04T14:54:48.036Z,29.10
2022-08-04T14:59:05.079Z,29.00
2022-08-04T15:03:13.873Z,28.80
2022-08-04T15:07:22.615Z,28.80
2022-08-04T15:11:31.859Z,28.70
2022-08-04T15:15:42.210Z,28.60
2022-08-04T15:19:55.785Z,28.50
2022-08-04T15:24:01.339Z,28.40
2022-08-04T15:28:19.200Z,28.30
2022-08-04T15:32:30.283Z,28.30
2022-08-04T15:36:57.246Z,28.30
2022-08-04T15:41:10.699Z,28.20
2022-08-04T15:46:26.491Z,28.00
2022-08-04T15:49:40.301Z,27.90
2022-08-04T15:54:02.199Z,27.80
2022-08-04T15:58:05.287Z,27.70
2022-08-04T16:02:39.925Z,27.70
2022-08-04T16:06:48.788Z,27.80
2022-08-04T16:10:57.404Z,27.90
2022-08-04T16:15:43.316Z,27.80
2022-08-04T16:19:58.825Z,27.70
2022-08-04T16:24:25.281Z,27.60
2022-08-04T16:28:44.238Z,27.50
2022-08-04T16:32:54.772Z,27.60
2022-08-04T16:37:05.913Z,27.80
2022-08-04T16:41:15.986Z,28.00
2022-08-04T16:45:26.347Z,28.00
2022-08-04T16:49:35.682Z,27.80
2022-08-04T16:54:03.054Z,27.70
2022-08-04T16:57:59.790Z,27.60
2022-08-04T17:02:09.856Z,27.60
2022-08-04T17:06:19.041Z,27.50
2022-08-04T17:10:33.651Z,27.60
2022-08-04T17:14:45.026Z,27.70
2022-08-04T17:18:57.785Z,27.90
2022-08-04T17:24:12.404Z,27.90
2022-08-04T17:28:20.220Z,27.90
2022-08-04T17:31:44.563Z,27.90
2022-08-04T17:35:55.902Z,27.90
2022-08-04T17:40:10.307Z,27.90
2022-08-04T17:44:19.218Z,27.80
2022-08-04T17:48:27.829Z,27.70
2022-08-04T17:52:45.423Z,27.60
2022-08-04T17:56:51.610Z,27.60
2022-08-04T18:05:14.487Z,27.30
2022-08-04T18:13:42.637Z,27.10
2022-08-04T18:18:20.566Z,27.00
2022-08-04T18:22:03.533Z,26.90
2022-08-04T18:26:12.773Z,26.80
2022-08-04T18:30:36.513Z,26.80
2022-08-04T18:34:33.780Z,26.90
2022-08-04T18:38:55.557Z,26.80
2022-08-04T18:42:53.008Z,26.70
2022-08-04T18:47:22.381Z,26.70
2022-08-04T18:51:22.875Z,26.70
2022-08-04T18:55:55.154Z,26.60
2022-08-04T18:59:34.239Z,26.80
2022-08-04T19:03:44.662Z,26.60
2022-08-04T19:08:02.444Z,26.60
2022-08-04T19:16:20.876Z,26.50
2022-08-04T19:20:27.220Z,26.40
2022-08-04T19:24:35.907Z,26.30
2022-08-04T19:28:47.435Z,26.20
2022-08-04T19:32:56.071Z,26.20
2022-08-04T19:37:04.665Z,26.10
2022-08-04T19:41:14.381Z,26.00
2022-08-04T19:45:40.140Z,25.90
2022-08-04T19:50:04.881Z,25.80
2022-08-04T19:53:44.336Z,25.70
2022-08-04T19:57:54.671Z,25.60
2022-08-04T20:02:03.302Z,25.50
2022-08-04T20:06:12.028Z,25.30
2022-08-04T20:10:23.902Z,25.20
2022-08-04T20:14:33.530Z,25.00
2022-08-04T20:18:55.499Z,24.90
2022-08-04T20:22:53.399Z,24.90
2022-08-04T20:31:18.480Z,24.70
2022-08-04T20:35:26.782Z,24.50
2022-08-04T20:39:35.671Z,24.70
2022-08-04T20:43:44.431Z,24.40
2022-08-04T20:47:54.686Z,24.20
2022-08-04T20:56:19.005Z,24.00
2022-08-04T21:00:30.281Z,24.00
2022-08-04T21:04:46.411Z,24.00
2022-08-04T21:08:57.093Z,24.00
2022-08-04T21:13:05.417Z,24.00
2022-08-04T21:17:19.929Z,24.00
2022-08-04T21:25:42.989Z,24.00
2022-08-04T21:29:46.982Z,24.00
2022-08-04T21:33:57.237Z,23.90
2022-08-04T21:38:17.356Z,23.80
2022-08-04T21:42:28.830Z,23.80
2022-08-04T21:46:27.144Z,23.80
2022-08-04T21:50:37.413Z,23.80
2022-08-04T21:54:46.114Z,23.80
2022-08-04T21:58:58.026Z,23.50
2022-08-04T22:03:06.707Z,23.30
2022-08-04T22:07:17.542Z,23.10
2022-08-04T22:11:49.244Z,22.90
2022-08-04T22:19:55.367Z,22.20
2022-08-04T22:24:04.019Z,22.20
2022-08-04T22:28:12.904Z,22.30
2022-08-04T22:32:23.158Z,22.40
2022-08-04T22:36:31.731Z,22.50
2022-08-04T22:40:41.753Z,22.40
2022-08-04T22:44:52.104Z,22.30
2022-08-04T22:49:00.790Z,22.00
2022-08-04T22:53:09.454Z,21.90
2022-08-04T22:57:19.725Z,21.90
2022-08-04T23:01:57.988Z,21.80
2022-08-04T23:05:40.420Z,21.70
2022-08-04T23:09:51.672Z,21.80
2022-08-04T23:14:00.354Z,21.90
2022-08-04T23:18:09.144Z,22.00
2022-08-04T23:22:19.255Z,22.10
2022-08-04T23:26:30.065Z,22.10
2022-08-04T23:30:38.691Z,22.00
2022-08-04T23:34:48.953Z,22.00
2022-08-04T23:39:06.250Z,22.00
2022-08-04T23:43:17.881Z,21.90
2022-08-04T23:48:19.257Z,21.90
2022-08-04T23:51:35.312Z,21.90
2022-08-04T23:55:44.283Z,21.70
2022-08-04T23:59:55.623Z,21.30
